createdAt,value
2019-02-22T00:01:20.806Z,40.60
2019-02-22T00:06:13.757Z,48.63
2019-02-22T00:11:06.329Z,67.70
2019-02-22T00:15:58.870Z,71.55
2019-02-22T00:20:51.315Z,34.15
2019-02-22T00:25:43.800Z,36.48
2019-02-22T00:30:36.270Z,40.50
2019-02-22T00:35:28.732Z,27.85
2019-02-22T00:40:21.109Z,38.35
2019-02-22T00:45:13.766Z,43.98
2019-02-22T00:50:06.577Z,35.90
2019-02-22T00:54:58.941Z,40.70
2019-02-22T00:59:51.426Z,36.42
2019-02-22T01:04:43.861Z,58.75
2019-02-22T01:09:36.606Z,47.67
2019-02-22T01:14:29.217Z,71.02
2019-02-22T01:19:21.691Z,39.05
2019-02-22T01:24:14.133Z,35.78
2019-02-22T01:29:06.665Z,32.35
2019-02-22T01:33:59.257Z,34.63
2019-02-22T01:38:51.822Z,31.83
2019-02-22T01:43:44.173Z,38.90
2019-02-22T01:48:36.640Z,35.05
2019-02-22T01:53:28.913Z,39.25
2019-02-22T01:58:21.659Z,45.50
2019-02-22T02:03:14.445Z,38.07
2019-02-22T02:08:07.065Z,38.55
2019-02-22T02:12:59.641Z,36.58
2019-02-22T02:17:51.971Z,36.05
2019-02-22T02:22:44.527Z,42.98
2019-02-22T02:27:37.112Z,47.62
2019-02-22T02:32:29.629Z,41.13
2019-02-22T02:37:22.146Z,39.55
2019-02-22T02:42:14.718Z,46.73
2019-02-22T02:47:07.385Z,41.98
2019-02-22T02:51:59.828Z,48.68
2019-02-22T02:56:52.360Z,37.70
2019-02-22T03:01:45.202Z,41.73
2019-02-22T03:06:45.227Z,39.08
2019-02-22T03:11:37.860Z,37.05
2019-02-22T03:16:30.458Z,35.40
2019-02-22T03:21:23.127Z,44.17
2019-02-22T03:26:15.673Z,38.30
2019-02-22T03:31:08.210Z,39.83
2019-02-22T03:36:00.503Z,45.33
2019-02-22T03:40:52.905Z,49.00
2019-02-22T03:45:45.849Z,43.80
2019-02-22T03:50:38.441Z,43.00
2019-02-22T03:55:31.177Z,37.73
2019-02-22T04:00:43.373Z,38.83
2019-02-22T04:05:35.893Z,44.27
2019-02-22T04:10:28.311Z,40.13
2019-02-22T04:15:21.214Z,38.03
2019-02-22T04:20:13.665Z,46.03
2019-02-22T04:25:06.673Z,42.43
2019-02-22T04:29:59.318Z,47.27
2019-02-22T04:34:51.617Z,41.37
2019-02-22T04:39:44.159Z,46.00
2019-02-22T04:44:36.772Z,46.13
2019-02-22T04:49:29.133Z,53.57
2019-02-22T04:54:21.595Z,45.70
2019-02-22T04:59:13.912Z,45.20
2019-02-22T05:04:06.050Z,47.10
2019-02-22T05:08:58.530Z,41.90
2019-02-22T05:13:51.013Z,42.98
2019-02-22T05:18:43.322Z,60.87
2019-02-22T05:23:35.821Z,63.90
2019-02-22T05:28:28.380Z,71.72
2019-02-22T05:33:20.919Z,85.50
2019-02-22T05:38:13.388Z,86.20
2019-02-22T05:43:05.987Z,69.43
2019-02-22T05:47:58.344Z,131.63
2019-02-22T05:52:50.758Z,48.68
2019-02-22T05:57:43.056Z,52.57
2019-02-22T06:02:35.529Z,56.53
2019-02-22T06:07:27.910Z,52.95
2019-02-22T06:12:20.317Z,55.17
2019-02-22T06:17:14.746Z,54.07
2019-02-22T06:22:07.131Z,52.53
2019-02-22T06:26:59.197Z,49.37
2019-02-22T06:31:51.543Z,56.80
2019-02-22T06:36:43.962Z,55.05
2019-02-22T06:41:36.285Z,59.75
2019-02-22T06:46:28.381Z,66.62
2019-02-22T06:51:20.738Z,63.25
2019-02-22T06:56:13.281Z,67.25
2019-02-22T07:01:05.557Z,71.90
2019-02-22T07:05:57.769Z,55.93
2019-02-22T07:10:52.256Z,64.50
2019-02-22T07:15:44.661Z,63.17
2019-02-22T07:20:37.053Z,62.25
2019-02-22T07:25:29.170Z,77.87
2019-02-22T07:30:21.785Z,67.45
2019-02-22T07:35:14.675Z,60.88
2019-02-22T07:40:07.453Z,61.58
2019-02-22T07:44:59.737Z,69.90
2019-02-22T07:49:52.140Z,75.25
2019-02-22T07:54:44.689Z,59.83
2019-02-22T07:59:37.305Z,61.73
2019-02-22T08:04:29.814Z,60.08
2019-02-22T08:09:22.159Z,57.60
2019-02-22T08:14:14.426Z,60.92
2019-02-22T08:19:07.129Z,59.33
2019-02-22T08:23:59.916Z,54.45
2019-02-22T08:28:52.388Z,59.25
2019-02-22T08:33:44.944Z,55.15
2019-02-22T08:38:37.523Z,54.05
2019-02-22T08:43:31.715Z,55.10
2019-02-22T08:48:23.961Z,49.73
2019-02-22T08:53:16.489Z,48.50
2019-02-22T08:58:09.277Z,50.52
2019-02-22T09:03:01.905Z,53.87
2019-02-22T09:07:54.189Z,58.70
2019-02-22T09:12:46.760Z,64.82
2019-02-22T09:17:39.705Z,66.10
2019-02-22T09:22:31.944Z,69.25
2019-02-22T09:27:24.998Z,61.83
2019-02-22T09:32:17.041Z,74.12
2019-02-22T09:37:09.460Z,68.25
2019-02-22T09:42:01.659Z,73.47
2019-02-22T09:46:54.281Z,91.80
2019-02-22T09:51:46.569Z,79.82
2019-02-22T09:56:39.105Z,70.10
2019-02-22T10:01:31.787Z,75.03
2019-02-22T10:06:24.235Z,60.05
2019-02-22T10:11:16.672Z,65.85
2019-02-22T10:16:09.228Z,62.35
2019-02-22T10:21:01.613Z,54.58
2019-02-22T10:25:54.441Z,52.93
2019-02-22T10:30:47.052Z,48.15
2019-02-22T10:35:39.574Z,50.05
2019-02-22T10:40:31.996Z,44.18
2019-02-22T10:45:24.584Z,46.45
2019-02-22T10:50:17.215Z,43.28
2019-02-22T10:55:13.938Z,40.65
2019-02-22T11:00:14.433Z,40.23
2019-02-22T11:05:06.656Z,39.78
2019-02-22T11:09:59.046Z,36.63
2019-02-22T11:14:51.789Z,31.48
2019-02-22T11:19:44.422Z,28.80
2019-02-22T11:24:37.173Z,27.32
2019-02-22T11:29:30.032Z,27.67
2019-02-22T11:34:22.701Z,30.17
2019-02-22T11:39:14.996Z,24.90
2019-02-22T11:44:07.114Z,25.90
2019-02-22T11:48:59.485Z,34.98
2019-02-22T11:53:52.047Z,21.82
2019-02-22T11:58:44.676Z,20.97
2019-02-22T12:03:37.057Z,16.85
2019-02-22T12:08:29.878Z,15.58
2019-02-22T12:13:22.249Z,13.65
2019-02-22T12:18:14.605Z,18.00
2019-02-22T12:23:07.086Z,17.35
2019-02-22T12:27:59.657Z,14.93
2019-02-22T12:32:52.017Z,16.32
2019-02-22T12:37:44.301Z,15.18
2019-02-22T12:42:36.930Z,17.73
2019-02-22T12:47:29.509Z,14.85
2019-02-22T12:52:21.953Z,17.45
2019-02-22T12:57:14.853Z,16.07
2019-02-22T13:02:07.638Z,27.07
2019-02-22T13:06:59.925Z,15.40
2019-02-22T13:11:52.507Z,11.12
2019-02-22T13:16:45.226Z,8.20
2019-02-22T13:21:37.497Z,8.10
2019-02-22T13:26:30.000Z,14.68
2019-02-22T13:31:29.773Z,25.10
2019-02-22T13:36:16.454Z,12.53
2019-02-22T13:41:09.003Z,10.58
2019-02-22T13:46:01.469Z,7.75
2019-02-22T13:50:54.046Z,6.70
2019-02-22T13:55:47.045Z,10.15
2019-02-22T14:00:39.533Z,5.45
2019-02-22T14:05:32.925Z,5.95
2019-02-22T14:10:26.037Z,7.62
2019-02-22T14:15:18.960Z,7.95
2019-02-22T14:20:11.557Z,7.62
2019-02-22T14:25:04.969Z,10.00
2019-02-22T14:29:57.309Z,5.60
2019-02-22T14:34:49.860Z,7.85
2019-02-22T14:39:42.101Z,7.15
2019-02-22T14:44:34.453Z,8.23
2019-02-22T14:49:27.165Z,4.47
2019-02-22T14:54:19.617Z,5.08
2019-02-22T14:59:12.338Z,5.30
2019-02-22T15:04:06.144Z,5.10
2019-02-22T15:08:58.787Z,4.67
2019-02-22T15:13:50.686Z,6.62
2019-02-22T15:18:43.277Z,13.13
2019-02-22T15:23:38.805Z,3.35
2019-02-22T15:28:31.653Z,3.58
2019-02-22T15:33:24.173Z,3.65
2019-02-22T15:38:16.597Z,5.80
2019-02-22T15:43:09.034Z,5.17
2019-02-22T15:48:01.534Z,4.67
2019-02-22T15:52:53.725Z,4.90
2019-02-22T15:57:46.534Z,4.47
2019-02-22T16:02:38.893Z,7.65
2019-02-22T16:07:31.689Z,8.30
2019-02-22T16:12:23.817Z,5.03
2019-02-22T16:17:16.382Z,4.42
2019-02-22T16:22:08.845Z,4.72
2019-02-22T16:27:04.073Z,6.65
2019-02-22T16:31:56.594Z,7.10
2019-02-22T16:36:49.141Z,7.28
2019-02-22T16:41:41.591Z,6.17
2019-02-22T16:46:35.321Z,4.30
2019-02-22T16:51:27.948Z,7.53
2019-02-22T16:56:20.306Z,5.62
2019-02-22T17:01:13.053Z,5.72
2019-02-22T17:06:05.645Z,5.75
2019-02-22T17:10:58.417Z,7.62
2019-02-22T17:15:50.765Z,8.23
2019-02-22T17:20:43.444Z,5.37
2019-02-22T17:25:36.010Z,7.58
2019-02-22T17:30:28.562Z,7.28
2019-02-22T17:35:20.899Z,5.17
2019-02-22T17:40:24.534Z,6.03
2019-02-22T17:45:17.069Z,6.28
2019-02-22T17:50:10.512Z,8.95
2019-02-22T17:55:02.824Z,7.33
2019-02-22T17:59:55.537Z,8.00
2019-02-22T18:04:48.182Z,6.67
2019-02-22T18:09:41.425Z,6.95
2019-02-22T18:14:34.013Z,5.95
2019-02-22T18:19:26.565Z,4.08
2019-02-22T18:24:18.804Z,6.53
2019-02-22T18:29:11.411Z,3.80
2019-02-22T18:34:04.112Z,6.67
2019-02-22T18:38:56.448Z,6.47
2019-02-22T18:43:49.200Z,6.25
2019-02-22T18:48:41.889Z,9.55
2019-02-22T18:53:34.293Z,5.92
2019-02-22T18:58:26.585Z,5.53
2019-02-22T19:03:19.073Z,4.85
2019-02-22T19:08:11.395Z,5.22
2019-02-22T19:13:04.914Z,4.60
2019-02-22T19:17:57.302Z,6.97
2019-02-22T19:22:49.836Z,6.30
2019-02-22T19:27:42.176Z,6.53
2019-02-22T19:32:34.182Z,8.33
2019-02-22T19:37:26.805Z,19.85
2019-02-22T19:42:19.518Z,17.42
2019-02-22T19:47:11.874Z,16.42
2019-02-22T19:52:04.304Z,19.45
2019-02-22T19:56:57.003Z,17.42
2019-02-22T20:01:49.306Z,18.92
2019-02-22T20:06:41.723Z,14.95
2019-02-22T20:11:34.372Z,16.80
2019-02-22T20:16:27.181Z,28.20
2019-02-22T20:21:19.644Z,28.07
2019-02-22T20:26:12.348Z,20.43
2019-02-22T20:31:04.976Z,17.20
2019-02-22T20:35:57.763Z,47.37
2019-02-22T20:40:50.596Z,58.33
2019-02-22T20:45:43.353Z,57.33
2019-02-22T20:50:35.812Z,48.23
2019-02-22T20:55:28.523Z,44.70
2019-02-22T21:00:25.869Z,45.97
2019-02-22T21:05:18.498Z,34.20
2019-02-22T21:10:18.752Z,25.17
2019-02-22T21:15:12.546Z,27.00
2019-02-22T21:20:07.894Z,20.50
2019-02-22T21:25:00.360Z,30.87
2019-02-22T21:29:52.949Z,17.07
2019-02-22T21:34:45.249Z,22.07
2019-02-22T21:39:41.235Z,28.27
2019-02-22T21:44:34.025Z,21.67
2019-02-22T21:49:26.885Z,16.43
2019-02-22T21:54:38.677Z,31.20
2019-02-22T21:59:31.285Z,30.03
2019-02-22T22:04:23.970Z,24.13
2019-02-22T22:09:16.698Z,29.20
2019-02-22T22:14:09.305Z,20.87
2019-02-22T22:19:01.956Z,19.70
2019-02-22T22:23:54.918Z,21.67
2019-02-22T22:28:47.223Z,20.53
2019-02-22T22:33:39.691Z,28.40
2019-02-22T22:38:32.039Z,21.13
2019-02-22T22:43:24.761Z,22.37
2019-02-22T22:48:17.118Z,16.30
2019-02-22T22:53:09.580Z,16.27
2019-02-22T22:58:02.298Z,14.30
2019-02-22T23:02:55.024Z,14.73
2019-02-22T23:07:47.382Z,13.93
2019-02-22T23:12:40.314Z,12.77
2019-02-22T23:17:32.754Z,10.60
2019-02-22T23:22:25.523Z,19.43
2019-02-22T23:27:17.981Z,19.03
2019-02-22T23:32:10.501Z,22.90
2019-02-22T23:37:03.079Z,37.93
2019-02-22T23:41:55.421Z,19.77
2019-02-22T23:46:48.105Z,15.03
2019-02-22T23:51:40.700Z,19.37
2019-02-22T23:56:33.109Z,53.60
